sensor_id;sensor_type;location;lat;lon;timestamp;P1;durP1;ratioP1;P2;durP2;ratioP2
24411;SDS011;12544;46.760;15.942;2023-07-30T00:01:37;1.27;;;1.15;;
24411;SDS011;12544;46.760;15.942;2023-07-30T00:04:03;1.85;;;1.50;;
24411;SDS011;12544;46.760;15.942;2023-07-30T00:06:29;2.65;;;1.17;;
24411;SDS011;12544;46.760;15.942;2023-07-30T00:08:54;1.67;;;1.35;;
24411;SDS011;12544;46.760;15.942;2023-07-30T00:11:20;2.20;;;1.30;;
24411;SDS011;12544;46.760;15.942;2023-07-30T00:13:45;1.42;;;1.30;;
24411;SDS011;12544;46.760;15.942;2023-07-30T00:16:11;2.13;;;1.60;;
24411;SDS011;12544;46.760;15.942;2023-07-30T00:18:36;2.72;;;1.48;;
24411;SDS011;12544;46.760;15.942;2023-07-30T00:21:02;1.40;;;1.30;;
24411;SDS011;12544;46.760;15.942;2023-07-30T00:23:28;1.83;;;1.25;;
24411;SDS011;12544;46.760;15.942;2023-07-30T00:25:53;1.73;;;1.20;;
24411;SDS011;12544;46.760;15.942;2023-07-30T00:28:19;2.50;;;1.30;;
24411;SDS011;12544;46.760;15.942;2023-07-30T00:30:45;2.92;;;1.33;;
24411;SDS011;12544;46.760;15.942;2023-07-30T00:33:11;2.50;;;1.50;;
24411;SDS011;12544;46.760;15.942;2023-07-30T00:35:37;1.20;;;1.10;;
24411;SDS011;12544;46.760;15.942;2023-07-30T00:38:03;1.60;;;1.50;;
24411;SDS011;12544;46.760;15.942;2023-07-30T00:40:29;1.48;;;1.20;;
24411;SDS011;12544;46.760;15.942;2023-07-30T00:42:54;3.60;;;1.23;;
24411;SDS011;12544;46.760;15.942;2023-07-30T00:45:20;2.72;;;2.00;;
24411;SDS011;12544;46.760;15.942;2023-07-30T00:47:46;1.90;;;1.70;;
24411;SDS011;12544;46.760;15.942;2023-07-30T00:50:12;1.80;;;1.50;;
24411;SDS011;12544;46.760;15.942;2023-07-30T00:52:39;2.95;;;1.50;;
24411;SDS011;12544;46.760;15.942;2023-07-30T00:55:05;2.67;;;1.50;;
24411;SDS011;12544;46.760;15.942;2023-07-30T00:57:32;1.40;;;1.30;;
24411;SDS011;12544;46.760;15.942;2023-07-30T00:59:59;2.08;;;1.30;;
24411;SDS011;12544;46.760;15.942;2023-07-30T01:02:29;1.80;;;1.30;;
24411;SDS011;12544;46.760;15.942;2023-07-30T01:04:56;2.22;;;1.50;;
24411;SDS011;12544;46.760;15.942;2023-07-30T01:07:22;1.60;;;1.50;;
24411;SDS011;12544;46.760;15.942;2023-07-30T01:09:47;1.92;;;1.40;;
24411;SDS011;12544;46.760;15.942;2023-07-30T01:12:13;2.03;;;1.52;;
24411;SDS011;12544;46.760;15.942;2023-07-30T01:14:39;1.50;;;1.30;;
24411;SDS011;12544;46.760;15.942;2023-07-30T01:17:06;1.85;;;1.52;;
24411;SDS011;12544;46.760;15.942;2023-07-30T01:19:32;2.50;;;1.35;;
24411;SDS011;12544;46.760;15.942;2023-07-30T01:21:58;1.83;;;1.60;;
24411;SDS011;12544;46.760;15.942;2023-07-30T01:24:23;2.13;;;1.92;;
24411;SDS011;12544;46.760;15.942;2023-07-30T01:26:54;1.98;;;1.60;;
24411;SDS011;12544;46.760;15.942;2023-07-30T01:29:33;1.50;;;1.40;;
24411;SDS011;12544;46.760;15.942;2023-07-30T01:32:07;2.55;;;1.60;;
24411;SDS011;12544;46.760;15.942;2023-07-30T01:34:35;2.25;;;1.70;;
24411;SDS011;12544;46.760;15.942;2023-07-30T01:37:08;1.70;;;1.60;;
24411;SDS011;12544;46.760;15.942;2023-07-30T01:39:35;3.58;;;1.60;;
24411;SDS011;12544;46.760;15.942;2023-07-30T01:42:05;2.90;;;1.83;;
24411;SDS011;12544;46.760;15.942;2023-07-30T01:44:31;2.00;;;1.48;;
24411;SDS011;12544;46.760;15.942;2023-07-30T01:46:56;3.13;;;2.15;;
24411;SDS011;12544;46.760;15.942;2023-07-30T01:49:22;1.98;;;1.50;;
24411;SDS011;12544;46.760;15.942;2023-07-30T01:51:48;2.15;;;1.73;;
24411;SDS011;12544;46.760;15.942;2023-07-30T01:54:14;2.67;;;1.52;;
24411;SDS011;12544;46.760;15.942;2023-07-30T01:56:39;2.15;;;1.60;;
24411;SDS011;12544;46.760;15.942;2023-07-30T01:59:07;2.22;;;1.50;;
24411;SDS011;12544;46.760;15.942;2023-07-30T02:01:33;2.33;;;1.50;;
24411;SDS011;12544;46.760;15.942;2023-07-30T02:03:58;2.20;;;1.45;;
24411;SDS011;12544;46.760;15.942;2023-07-30T02:06:24;2.33;;;1.60;;
24411;SDS011;12544;46.760;15.942;2023-07-30T02:08:49;2.72;;;1.52;;
24411;SDS011;12544;46.760;15.942;2023-07-30T02:11:15;1.55;;;1.45;;
24411;SDS011;12544;46.760;15.942;2023-07-30T02:13:41;1.70;;;1.60;;
24411;SDS011;12544;46.760;15.942;2023-07-30T02:16:07;2.55;;;1.55;;
24411;SDS011;12544;46.760;15.942;2023-07-30T02:18:33;2.60;;;1.60;;
24411;SDS011;12544;46.760;15.942;2023-07-30T02:20:58;2.00;;;1.60;;
24411;SDS011;12544;46.760;15.942;2023-07-30T02:23:24;2.17;;;1.70;;
24411;SDS011;12544;46.760;15.942;2023-07-30T02:25:49;3.08;;;1.90;;
24411;SDS011;12544;46.760;15.942;2023-07-30T02:28:15;2.60;;;1.88;;
24411;SDS011;12544;46.760;15.942;2023-07-30T02:30:41;1.98;;;1.60;;
24411;SDS011;12544;46.760;15.942;2023-07-30T02:33:07;3.55;;;1.50;;
24411;SDS011;12544;46.760;15.942;2023-07-30T02:35:32;1.85;;;1.27;;
24411;SDS011;12544;46.760;15.942;2023-07-30T02:37:58;2.28;;;1.90;;
24411;SDS011;12544;46.760;15.942;2023-07-30T02:40:23;2.03;;;1.58;;
24411;SDS011;12544;46.760;15.942;2023-07-30T02:42:49;1.60;;;1.38;;
24411;SDS011;12544;46.760;15.942;2023-07-30T02:45:15;3.40;;;1.70;;
24411;SDS011;12544;46.760;15.942;2023-07-30T02:47:40;1.92;;;1.58;;
24411;SDS011;12544;46.760;15.942;2023-07-30T02:50:06;2.90;;;1.63;;
24411;SDS011;12544;46.760;15.942;2023-07-30T02:52:32;3.20;;;1.80;;
24411;SDS011;12544;46.760;15.942;2023-07-30T02:54:57;3.65;;;2.35;;
24411;SDS011;12544;46.760;15.942;2023-07-30T02:57:23;1.70;;;1.60;;
24411;SDS011;12544;46.760;15.942;2023-07-30T02:59:48;2.22;;;1.77;;
24411;SDS011;12544;46.760;15.942;2023-07-30T03:02:14;2.00;;;1.50;;
24411;SDS011;12544;46.760;15.942;2023-07-30T03:04:40;3.13;;;2.17;;
24411;SDS011;12544;46.760;15.942;2023-07-30T03:07:05;2.38;;;2.13;;
24411;SDS011;12544;46.760;15.942;2023-07-30T03:09:31;1.83;;;1.60;;
24411;SDS011;12544;46.760;15.942;2023-07-30T03:11:58;2.10;;;1.60;;
24411;SDS011;12544;46.760;15.942;2023-07-30T03:14:24;1.63;;;1.50;;
24411;SDS011;12544;46.760;15.942;2023-07-30T03:16:50;3.00;;;2.00;;
24411;SDS011;12544;46.760;15.942;2023-07-30T03:19:15;2.22;;;1.70;;
24411;SDS011;12544;46.760;15.942;2023-07-30T03:21:41;1.73;;;1.50;;
24411;SDS011;12544;46.760;15.942;2023-07-30T03:24:07;2.35;;;1.67;;
24411;SDS011;12544;46.760;15.942;2023-07-30T03:26:33;2.92;;;1.60;;
24411;SDS011;12544;46.760;15.942;2023-07-30T03:28:58;2.10;;;1.90;;
24411;SDS011;12544;46.760;15.942;2023-07-30T03:31:24;1.75;;;1.40;;
24411;SDS011;12544;46.760;15.942;2023-07-30T03:33:50;3.95;;;1.52;;
24411;SDS011;12544;46.760;15.942;2023-07-30T03:36:16;1.70;;;1.60;;
24411;SDS011;12544;46.760;15.942;2023-07-30T03:38:42;2.47;;;1.55;;
24411;SDS011;12544;46.760;15.942;2023-07-30T03:41:08;2.22;;;1.70;;
24411;SDS011;12544;46.760;15.942;2023-07-30T03:43:34;1.65;;;1.52;;
24411;SDS011;12544;46.760;15.942;2023-07-30T03:46:00;1.80;;;1.60;;
24411;SDS011;12544;46.760;15.942;2023-07-30T03:48:26;2.22;;;1.80;;
24411;SDS011;12544;46.760;15.942;2023-07-30T03:50:55;2.45;;;1.58;;
24411;SDS011;12544;46.760;15.942;2023-07-30T03:53:21;1.77;;;1.67;;
24411;SDS011;12544;46.760;15.942;2023-07-30T03:55:47;2.38;;;1.60;;
24411;SDS011;12544;46.760;15.942;2023-07-30T03:58:12;2.25;;;1.48;;
24411;SDS011;12544;46.760;15.942;2023-07-30T04:00:38;3.30;;;1.60;;
24411;SDS011;12544;46.760;15.942;2023-07-30T04:03:04;3.00;;;1.92;;
24411;SDS011;12544;46.760;15.942;2023-07-30T04:05:30;2.38;;;1.83;;
24411;SDS011;12544;46.760;15.942;2023-07-30T04:07:56;2.13;;;1.92;;
24411;SDS011;12544;46.760;15.942;2023-07-30T04:10:21;4.40;;;1.70;;
24411;SDS011;12544;46.760;15.942;2023-07-30T04:12:47;5.07;;;2.03;;
24411;SDS011;12544;46.760;15.942;2023-07-30T04:15:13;2.60;;;1.85;;
24411;SDS011;12544;46.760;15.942;2023-07-30T04:17:39;2.28;;;2.08;;
24411;SDS011;12544;46.760;15.942;2023-07-30T04:20:05;2.83;;;2.10;;
24411;SDS011;12544;46.760;15.942;2023-07-30T04:22:31;2.00;;;1.70;;
24411;SDS011;12544;46.760;15.942;2023-07-30T04:24:57;2.72;;;2.00;;
24411;SDS011;12544;46.760;15.942;2023-07-30T04:27:22;2.30;;;2.10;;
24411;SDS011;12544;46.760;15.942;2023-07-30T04:29:48;2.90;;;2.35;;
24411;SDS011;12544;46.760;15.942;2023-07-30T04:32:13;2.10;;;1.88;;
24411;SDS011;12544;46.760;15.942;2023-07-30T04:34:39;2.60;;;1.77;;
24411;SDS011;12544;46.760;15.942;2023-07-30T04:37:05;2.05;;;1.40;;
24411;SDS011;12544;46.760;15.942;2023-07-30T04:39:34;2.13;;;1.63;;
24411;SDS011;12544;46.760;15.942;2023-07-30T04:42:00;4.03;;;2.20;;
24411;SDS011;12544;46.760;15.942;2023-07-30T04:44:26;2.05;;;1.83;;
24411;SDS011;12544;46.760;15.942;2023-07-30T04:46:52;2.25;;;1.80;;
24411;SDS011;12544;46.760;15.942;2023-07-30T04:49:18;1.95;;;1.75;;
24411;SDS011;12544;46.760;15.942;2023-07-30T04:51:43;1.92;;;1.73;;
24411;SDS011;12544;46.760;15.942;2023-07-30T04:54:09;2.50;;;1.95;;
24411;SDS011;12544;46.760;15.942;2023-07-30T04:56:34;3.53;;;1.80;;
24411;SDS011;12544;46.760;15.942;2023-07-30T04:59:01;2.67;;;1.90;;
24411;SDS011;12544;46.760;15.942;2023-07-30T05:01:27;2.80;;;2.05;;
24411;SDS011;12544;46.760;15.942;2023-07-30T05:03:53;2.70;;;1.52;;
24411;SDS011;12544;46.760;15.942;2023-07-30T05:06:18;1.90;;;1.52;;
24411;SDS011;12544;46.760;15.942;2023-07-30T05:08:44;1.90;;;1.67;;
24411;SDS011;12544;46.760;15.942;2023-07-30T05:11:09;2.60;;;2.08;;
24411;SDS011;12544;46.760;15.942;2023-07-30T05:13:35;2.63;;;2.20;;
24411;SDS011;12544;46.760;15.942;2023-07-30T05:16:01;1.83;;;1.73;;
24411;SDS011;12544;46.760;15.942;2023-07-30T05:18:27;3.53;;;2.08;;
24411;SDS011;12544;46.760;15.942;2023-07-30T05:20:52;3.25;;;1.70;;
24411;SDS011;12544;46.760;15.942;2023-07-30T05:23:19;2.05;;;1.73;;
24411;SDS011;12544;46.760;15.942;2023-07-30T05:25:45;2.60;;;1.58;;
24411;SDS011;12544;46.760;15.942;2023-07-30T05:28:11;2.10;;;1.52;;
24411;SDS011;12544;46.760;15.942;2023-07-30T05:30:37;3.05;;;1.90;;
24411;SDS011;12544;46.760;15.942;2023-07-30T05:33:02;2.88;;;2.10;;
24411;SDS011;12544;46.760;15.942;2023-07-30T05:35:28;5.13;;;2.80;;
24411;SDS011;12544;46.760;15.942;2023-07-30T05:37:53;2.75;;;2.17;;
24411;SDS011;12544;46.760;15.942;2023-07-30T05:40:22;2.88;;;1.90;;
24411;SDS011;12544;46.760;15.942;2023-07-30T05:42:48;2.78;;;1.90;;
24411;SDS011;12544;46.760;15.942;2023-07-30T05:45:13;2.80;;;1.90;;
24411;SDS011;12544;46.760;15.942;2023-07-30T05:47:39;4.60;;;2.55;;
24411;SDS011;12544;46.760;15.942;2023-07-30T05:50:06;5.13;;;1.85;;
24411;SDS011;12544;46.760;15.942;2023-07-30T05:52:32;3.60;;;2.38;;
24411;SDS011;12544;46.760;15.942;2023-07-30T05:54:58;4.60;;;1.90;;
24411;SDS011;12544;46.760;15.942;2023-07-30T05:57:24;2.38;;;1.80;;
24411;SDS011;12544;46.760;15.942;2023-07-30T05:59:49;1.98;;;1.80;;
24411;SDS011;12544;46.760;15.942;2023-07-30T06:04:44;2.03;;;1.83;;
24411;SDS011;12544;46.760;15.942;2023-07-30T06:07:09;8.40;;;2.88;;
24411;SDS011;12544;46.760;15.942;2023-07-30T06:09:35;2.40;;;2.15;;
24411;SDS011;12544;46.760;15.942;2023-07-30T06:12:01;2.42;;;2.15;;
24411;SDS011;12544;46.760;15.942;2023-07-30T06:14:27;2.20;;;2.00;;
24411;SDS011;12544;46.760;15.942;2023-07-30T06:16:53;3.25;;;2.50;;
24411;SDS011;12544;46.760;15.942;2023-07-30T06:19:18;3.35;;;2.75;;
24411;SDS011;12544;46.760;15.942;2023-07-30T06:21:44;2.53;;;2.33;;
24411;SDS011;12544;46.760;15.942;2023-07-30T06:24:10;3.30;;;2.28;;
24411;SDS011;12544;46.760;15.942;2023-07-30T06:26:36;4.03;;;2.40;;
24411;SDS011;12544;46.760;15.942;2023-07-30T06:29:01;4.00;;;2.72;;
24411;SDS011;12544;46.760;15.942;2023-07-30T06:31:27;3.33;;;2.47;;
24411;SDS011;12544;46.760;15.942;2023-07-30T06:33:53;3.53;;;2.55;;
24411;SDS011;12544;46.760;15.942;2023-07-30T06:36:18;3.03;;;2.72;;
24411;SDS011;12544;46.760;15.942;2023-07-30T06:38:44;6.50;;;3.25;;
24411;SDS011;12544;46.760;15.942;2023-07-30T06:41:10;3.28;;;2.97;;
24411;SDS011;12544;46.760;15.942;2023-07-30T06:43:36;3.28;;;2.83;;
24411;SDS011;12544;46.760;15.942;2023-07-30T06:46:02;3.95;;;2.95;;
24411;SDS011;12544;46.760;15.942;2023-07-30T06:48:28;2.95;;;2.65;;
24411;SDS011;12544;46.760;15.942;2023-07-30T06:50:54;3.00;;;2.30;;
24411;SDS011;12544;46.760;15.942;2023-07-30T06:53:19;2.85;;;2.35;;
24411;SDS011;12544;46.760;15.942;2023-07-30T06:55:45;2.40;;;2.20;;
24411;SDS011;12544;46.760;15.942;2023-07-30T06:58:11;4.30;;;2.92;;
24411;SDS011;12544;46.760;15.942;2023-07-30T07:00:36;5.22;;;3.10;;
24411;SDS011;12544;46.760;15.942;2023-07-30T07:03:02;4.30;;;2.95;;
24411;SDS011;12544;46.760;15.942;2023-07-30T07:05:28;3.72;;;3.10;;
24411;SDS011;12544;46.760;15.942;2023-07-30T07:07:54;3.72;;;3.30;;
24411;SDS011;12544;46.760;15.942;2023-07-30T07:10:20;5.43;;;3.38;;
24411;SDS011;12544;46.760;15.942;2023-07-30T07:12:46;3.90;;;2.60;;
24411;SDS011;12544;46.760;15.942;2023-07-30T07:15:12;3.17;;;2.58;;
24411;SDS011;12544;46.760;15.942;2023-07-30T07:17:38;3.45;;;3.15;;
24411;SDS011;12544;46.760;15.942;2023-07-30T07:20:04;3.17;;;2.88;;
24411;SDS011;12544;46.760;15.942;2023-07-30T07:22:32;3.25;;;2.95;;
24411;SDS011;12544;46.760;15.942;2023-07-30T07:24:57;2.88;;;2.67;;
24411;SDS011;12544;46.760;15.942;2023-07-30T07:27:23;4.05;;;3.65;;
24411;SDS011;12544;46.760;15.942;2023-07-30T07:29:49;4.78;;;3.35;;
24411;SDS011;12544;46.760;15.942;2023-07-30T07:32:16;3.20;;;2.47;;
24411;SDS011;12544;46.760;15.942;2023-07-30T07:34:45;5.72;;;3.63;;
24411;SDS011;12544;46.760;15.942;2023-07-30T07:37:11;3.25;;;2.92;;
24411;SDS011;12544;46.760;15.942;2023-07-30T07:39:40;3.22;;;2.42;;
24411;SDS011;12544;46.760;15.942;2023-07-30T07:42:08;5.35;;;2.83;;
24411;SDS011;12544;46.760;15.942;2023-07-30T07:44:34;4.05;;;2.03;;
24411;SDS011;12544;46.760;15.942;2023-07-30T07:47:00;2.70;;;2.33;;
24411;SDS011;12544;46.760;15.942;2023-07-30T07:49:26;2.65;;;2.38;;
24411;SDS011;12544;46.760;15.942;2023-07-30T07:51:52;2.60;;;2.03;;
24411;SDS011;12544;46.760;15.942;2023-07-30T07:54:17;2.70;;;2.50;;
24411;SDS011;12544;46.760;15.942;2023-07-30T07:56:43;3.88;;;2.60;;
24411;SDS011;12544;46.760;15.942;2023-07-30T07:59:08;3.38;;;2.72;;
24411;SDS011;12544;46.760;15.942;2023-07-30T08:01:34;4.30;;;2.63;;
24411;SDS011;12544;46.760;15.942;2023-07-30T08:04:00;3.03;;;2.83;;
24411;SDS011;12544;46.760;15.942;2023-07-30T08:06:25;2.63;;;2.42;;
24411;SDS011;12544;46.760;15.942;2023-07-30T08:08:51;3.95;;;2.53;;
24411;SDS011;12544;46.760;15.942;2023-07-30T08:11:17;4.85;;;3.35;;
24411;SDS011;12544;46.760;15.942;2023-07-30T08:13:42;3.25;;;2.92;;
24411;SDS011;12544;46.760;15.942;2023-07-30T08:16:08;2.50;;;2.30;;
24411;SDS011;12544;46.760;15.942;2023-07-30T08:18:33;6.80;;;2.75;;
24411;SDS011;12544;46.760;15.942;2023-07-30T08:20:59;3.53;;;2.10;;
24411;SDS011;12544;46.760;15.942;2023-07-30T08:23:25;3.47;;;2.15;;
24411;SDS011;12544;46.760;15.942;2023-07-30T08:25:51;2.88;;;2.45;;
24411;SDS011;12544;46.760;15.942;2023-07-30T08:28:17;2.53;;;2.17;;
24411;SDS011;12544;46.760;15.942;2023-07-30T08:30:43;2.38;;;2.17;;
24411;SDS011;12544;46.760;15.942;2023-07-30T08:33:08;3.20;;;2.00;;
24411;SDS011;12544;46.760;15.942;2023-07-30T08:35:34;1.65;;;1.55;;
24411;SDS011;12544;46.760;15.942;2023-07-30T08:38:00;2.08;;;1.80;;
24411;SDS011;12544;46.760;15.942;2023-07-30T08:40:25;2.03;;;1.55;;
24411;SDS011;12544;46.760;15.942;2023-07-30T08:42:52;2.30;;;1.92;;
24411;SDS011;12544;46.760;15.942;2023-07-30T08:45:18;1.70;;;1.58;;
24411;SDS011;12544;46.760;15.942;2023-07-30T08:47:45;1.90;;;1.40;;
24411;SDS011;12544;46.760;15.942;2023-07-30T08:50:11;2.20;;;1.70;;
24411;SDS011;12544;46.760;15.942;2023-07-30T08:52:37;2.10;;;1.77;;
24411;SDS011;12544;46.760;15.942;2023-07-30T08:55:04;1.85;;;1.30;;
24411;SDS011;12544;46.760;15.942;2023-07-30T08:57:32;2.28;;;1.45;;
24411;SDS011;12544;46.760;15.942;2023-07-30T09:00:05;2.35;;;1.40;;
24411;SDS011;12544;46.760;15.942;2023-07-30T09:05:39;1.58;;;1.25;;
24411;SDS011;12544;46.760;15.942;2023-07-30T09:08:05;3.47;;;1.42;;
24411;SDS011;12544;46.760;15.942;2023-07-30T09:10:31;2.78;;;2.53;;
24411;SDS011;12544;46.760;15.942;2023-07-30T09:12:57;1.90;;;1.65;;
24411;SDS011;12544;46.760;15.942;2023-07-30T09:15:33;1.83;;;1.73;;
24411;SDS011;12544;46.760;15.942;2023-07-30T09:18:06;3.30;;;1.80;;
24411;SDS011;12544;46.760;15.942;2023-07-30T09:20:40;1.70;;;1.60;;
24411;SDS011;12544;46.760;15.942;2023-07-30T09:23:07;2.03;;;1.50;;
24411;SDS011;12544;46.760;15.942;2023-07-30T09:25:34;3.95;;;1.63;;
24411;SDS011;12544;46.760;15.942;2023-07-30T09:28:00;1.67;;;1.58;;
24411;SDS011;12544;46.760;15.942;2023-07-30T09:30:26;1.70;;;1.60;;
24411;SDS011;12544;46.760;15.942;2023-07-30T09:33:03;1.77;;;1.55;;
24411;SDS011;12544;46.760;15.942;2023-07-30T09:35:29;2.05;;;1.50;;
24411;SDS011;12544;46.760;15.942;2023-07-30T09:38:01;1.80;;;1.30;;
24411;SDS011;12544;46.760;15.942;2023-07-30T09:40:35;1.92;;;1.70;;
24411;SDS011;12544;46.760;15.942;2023-07-30T09:43:02;1.83;;;1.55;;
24411;SDS011;12544;46.760;15.942;2023-07-30T09:45:32;1.73;;;1.50;;
24411;SDS011;12544;46.760;15.942;2023-07-30T09:47:59;1.70;;;1.58;;
24411;SDS011;12544;46.760;15.942;2023-07-30T09:50:28;2.60;;;1.40;;
24411;SDS011;12544;46.760;15.942;2023-07-30T09:52:54;1.92;;;1.45;;
24411;SDS011;12544;46.760;15.942;2023-07-30T09:55:20;2.03;;;1.70;;
24411;SDS011;12544;46.760;15.942;2023-07-30T09:57:45;1.98;;;1.40;;
24411;SDS011;12544;46.760;15.942;2023-07-30T10:00:11;2.13;;;1.92;;
24411;SDS011;12544;46.760;15.942;2023-07-30T10:02:39;1.95;;;1.55;;
24411;SDS011;12544;46.760;15.942;2023-07-30T10:05:08;2.42;;;1.55;;
24411;SDS011;12544;46.760;15.942;2023-07-30T10:07:40;2.15;;;1.60;;
24411;SDS011;12544;46.760;15.942;2023-07-30T10:10:11;2.40;;;1.50;;
24411;SDS011;12544;46.760;15.942;2023-07-30T10:12:38;1.63;;;1.40;;
24411;SDS011;12544;46.760;15.942;2023-07-30T10:17:56;1.50;;;1.40;;
24411;SDS011;12544;46.760;15.942;2023-07-30T10:20:26;1.55;;;1.30;;
24411;SDS011;12544;46.760;15.942;2023-07-30T10:22:54;1.70;;;1.35;;
24411;SDS011;12544;46.760;15.942;2023-07-30T10:25:22;1.55;;;1.45;;
24411;SDS011;12544;46.760;15.942;2023-07-30T10:27:53;1.88;;;1.30;;
24411;SDS011;12544;46.760;15.942;2023-07-30T10:30:20;1.60;;;1.33;;
24411;SDS011;12544;46.760;15.942;2023-07-30T10:35:41;1.20;;;1.10;;
24411;SDS011;12544;46.760;15.942;2023-07-30T10:38:21;2.55;;;1.10;;
24411;SDS011;12544;46.760;15.942;2023-07-30T10:41:06;1.73;;;1.40;;
24411;SDS011;12544;46.760;15.942;2023-07-30T10:43:37;1.38;;;1.27;;
24411;SDS011;12544;46.760;15.942;2023-07-30T10:46:05;1.30;;;1.17;;
24411;SDS011;12544;46.760;15.942;2023-07-30T10:48:31;3.08;;;1.20;;
24411;SDS011;12544;46.760;15.942;2023-07-30T10:51:02;1.27;;;1.10;;
24411;SDS011;12544;46.760;15.942;2023-07-30T10:53:31;1.13;;;1.02;;
24411;SDS011;12544;46.760;15.942;2023-07-30T10:55:57;1.70;;;1.08;;
24411;SDS011;12544;46.760;15.942;2023-07-30T10:58:26;1.38;;;1.23;;
24411;SDS011;12544;46.760;15.942;2023-07-30T11:00:53;1.10;;;1.00;;
24411;SDS011;12544;46.760;15.942;2023-07-30T11:05:56;1.15;;;1.05;;
24411;SDS011;12544;46.760;15.942;2023-07-30T11:08:31;2.15;;;1.00;;
24411;SDS011;12544;46.760;15.942;2023-07-30T11:11:05;1.17;;;0.90;;
24411;SDS011;12544;46.760;15.942;2023-07-30T11:13:36;2.13;;;1.10;;
24411;SDS011;12544;46.760;15.942;2023-07-30T11:16:04;1.70;;;1.25;;
24411;SDS011;12544;46.760;15.942;2023-07-30T11:21:24;1.20;;;1.10;;
24411;SDS011;12544;46.760;15.942;2023-07-30T11:23:50;1.33;;;1.20;;
24411;SDS011;12544;46.760;15.942;2023-07-30T11:26:19;1.27;;;1.08;;
24411;SDS011;12544;46.760;15.942;2023-07-30T11:28:45;2.03;;;1.00;;
24411;SDS011;12544;46.760;15.942;2023-07-30T11:31:11;1.13;;;1.02;;
24411;SDS011;12544;46.760;15.942;2023-07-30T11:33:42;1.23;;;1.08;;
24411;SDS011;12544;46.760;15.942;2023-07-30T11:36:16;1.15;;;1.05;;
24411;SDS011;12544;46.760;15.942;2023-07-30T11:38:49;1.60;;;1.30;;
24411;SDS011;12544;46.760;15.942;2023-07-30T11:41:15;1.30;;;1.17;;
24411;SDS011;12544;46.760;15.942;2023-07-30T11:43:42;1.50;;;1.17;;
24411;SDS011;12544;46.760;15.942;2023-07-30T11:48:47;1.20;;;1.10;;
24411;SDS011;12544;46.760;15.942;2023-07-30T11:51:30;1.50;;;1.40;;
24411;SDS011;12544;46.760;15.942;2023-07-30T11:53:57;1.20;;;1.10;;
24411;SDS011;12544;46.760;15.942;2023-07-30T11:56:29;1.40;;;1.23;;
24411;SDS011;12544;46.760;15.942;2023-07-30T11:58:57;1.63;;;1.33;;
24411;SDS011;12544;46.760;15.942;2023-07-30T12:01:25;1.70;;;1.08;;
24411;SDS011;12544;46.760;15.942;2023-07-30T12:03:58;2.15;;;1.10;;
24411;SDS011;12544;46.760;15.942;2023-07-30T12:07:09;1.70;;;1.30;;
24411;SDS011;12544;46.760;15.942;2023-07-30T12:09:15;1.42;;;1.17;;
24411;SDS011;12544;46.760;15.942;2023-07-30T12:17:15;1.40;;;1.30;;
24411;SDS011;12544;46.760;15.942;2023-07-30T12:19:41;1.63;;;1.35;;
24411;SDS011;12544;46.760;15.942;2023-07-30T12:22:07;0.98;;;0.93;;
24411;SDS011;12544;46.760;15.942;2023-07-30T12:24:32;1.42;;;1.30;;
24411;SDS011;12544;46.760;15.942;2023-07-30T12:26:58;1.27;;;1.17;;
24411;SDS011;12544;46.760;15.942;2023-07-30T12:29:24;1.05;;;1.00;;
24411;SDS011;12544;46.760;15.942;2023-07-30T12:31:50;1.75;;;1.20;;
24411;SDS011;12544;46.760;15.942;2023-07-30T12:34:19;1.40;;;1.30;;
24411;SDS011;12544;46.760;15.942;2023-07-30T12:36:47;1.13;;;1.00;;
24411;SDS011;12544;46.760;15.942;2023-07-30T12:39:12;1.40;;;1.30;;
24411;SDS011;12544;46.760;15.942;2023-07-30T12:41:38;1.73;;;1.33;;
24411;SDS011;12544;46.760;15.942;2023-07-30T12:44:04;1.40;;;1.00;;
24411;SDS011;12544;46.760;15.942;2023-07-30T12:46:30;1.70;;;1.10;;
24411;SDS011;12544;46.760;15.942;2023-07-30T12:48:57;1.95;;;1.48;;
24411;SDS011;12544;46.760;15.942;2023-07-30T12:54:29;2.08;;;1.52;;
24411;SDS011;12544;46.760;15.942;2023-07-30T12:56:55;1.20;;;1.10;;
24411;SDS011;12544;46.760;15.942;2023-07-30T12:59:20;1.33;;;1.10;;
24411;SDS011;12544;46.760;15.942;2023-07-30T13:01:46;1.20;;;1.10;;
24411;SDS011;12544;46.760;15.942;2023-07-30T13:04:11;1.58;;;1.17;;
24411;SDS011;12544;46.760;15.942;2023-07-30T13:06:37;1.30;;;1.20;;
24411;SDS011;12544;46.760;15.942;2023-07-30T13:09:03;1.88;;;1.30;;
24411;SDS011;12544;46.760;15.942;2023-07-30T13:11:28;2.63;;;1.13;;
24411;SDS011;12544;46.760;15.942;2023-07-30T13:13:54;1.63;;;1.30;;
24411;SDS011;12544;46.760;15.942;2023-07-30T13:16:19;1.60;;;1.20;;
24411;SDS011;12544;46.760;15.942;2023-07-30T13:18:45;1.27;;;1.10;;
24411;SDS011;12544;46.760;15.942;2023-07-30T13:21:10;2.72;;;1.23;;
24411;SDS011;12544;46.760;15.942;2023-07-30T13:23:36;1.10;;;1.00;;
24411;SDS011;12544;46.760;15.942;2023-07-30T13:26:01;1.25;;;1.10;;
24411;SDS011;12544;46.760;15.942;2023-07-30T13:28:28;1.60;;;1.20;;
24411;SDS011;12544;46.760;15.942;2023-07-30T13:30:53;1.75;;;1.13;;
24411;SDS011;12544;46.760;15.942;2023-07-30T13:33:19;2.30;;;1.17;;
24411;SDS011;12544;46.760;15.942;2023-07-30T13:35:44;1.13;;;1.02;;
24411;SDS011;12544;46.760;15.942;2023-07-30T13:38:10;1.30;;;1.20;;
24411;SDS011;12544;46.760;15.942;2023-07-30T13:40:36;2.40;;;1.35;;
24411;SDS011;12544;46.760;15.942;2023-07-30T13:43:01;1.25;;;1.08;;
24411;SDS011;12544;46.760;15.942;2023-07-30T13:45:27;1.30;;;1.20;;
24411;SDS011;12544;46.760;15.942;2023-07-30T13:47:53;1.63;;;1.40;;
24411;SDS011;12544;46.760;15.942;2023-07-30T13:50:18;1.38;;;1.27;;
24411;SDS011;12544;46.760;15.942;2023-07-30T13:53:02;1.73;;;1.00;;
24411;SDS011;12544;46.760;15.942;2023-07-30T13:55:28;1.15;;;1.02;;
24411;SDS011;12544;46.760;15.942;2023-07-30T13:57:54;1.20;;;1.10;;
24411;SDS011;12544;46.760;15.942;2023-07-30T14:00:19;2.20;;;1.10;;
24411;SDS011;12544;46.760;15.942;2023-07-30T14:02:45;1.67;;;1.08;;
24411;SDS011;12544;46.760;15.942;2023-07-30T14:05:11;1.10;;;1.00;;
24411;SDS011;12544;46.760;15.942;2023-07-30T14:07:36;1.08;;;1.00;;
24411;SDS011;12544;46.760;15.942;2023-07-30T14:10:04;1.17;;;1.00;;
24411;SDS011;12544;46.760;15.942;2023-07-30T14:12:30;1.92;;;1.08;;
24411;SDS011;12544;46.760;15.942;2023-07-30T14:14:56;1.65;;;0.98;;
24411;SDS011;12544;46.760;15.942;2023-07-30T14:17:21;1.15;;;1.00;;
24411;SDS011;12544;46.760;15.942;2023-07-30T14:19:47;1.92;;;1.27;;
24411;SDS011;12544;46.760;15.942;2023-07-30T14:24:59;1.30;;;1.20;;
24411;SDS011;12544;46.760;15.942;2023-07-30T14:27:25;1.00;;;0.90;;
24411;SDS011;12544;46.760;15.942;2023-07-30T14:29:50;1.35;;;1.10;;
24411;SDS011;12544;46.760;15.942;2023-07-30T14:32:17;1.00;;;1.00;;
24411;SDS011;12544;46.760;15.942;2023-07-30T14:34:46;1.17;;;1.08;;
24411;SDS011;12544;46.760;15.942;2023-07-30T14:37:11;1.25;;;1.05;;
24411;SDS011;12544;46.760;15.942;2023-07-30T14:39:37;2.95;;;1.20;;
24411;SDS011;12544;46.760;15.942;2023-07-30T14:45:06;1.58;;;1.27;;
24411;SDS011;12544;46.760;15.942;2023-07-30T14:47:32;1.08;;;0.80;;
24411;SDS011;12544;46.760;15.942;2023-07-30T14:49:58;1.27;;;1.17;;
24411;SDS011;12544;46.760;15.942;2023-07-30T14:55:18;1.10;;;1.00;;
24411;SDS011;12544;46.760;15.942;2023-07-30T14:57:44;1.10;;;1.05;;
24411;SDS011;12544;46.760;15.942;2023-07-30T15:00:10;1.20;;;1.10;;
24411;SDS011;12544;46.760;15.942;2023-07-30T15:02:38;1.65;;;1.10;;
24411;SDS011;12544;46.760;15.942;2023-07-30T15:05:04;1.10;;;1.00;;
24411;SDS011;12544;46.760;15.942;2023-07-30T15:07:29;1.20;;;1.10;;